This is the latest recevied weather packets stored in our database for station/object WA7CUG. If no packets are shown the sender has not sent any weather packets the latest 10 day(s).
| Time | Temp. | Humidity | Pressure | Rain* | Wind** | Luminosity | Snow |
|---|---|---|---|---|---|---|---|
| 1778057941 | 16.11° C | 60% | 1011.8 hPa | 0 mm | - | 0 W/m² | - |
| 1778057637 | 16.67° C | 59% | 1011.7 hPa | 0 mm | - | 0 W/m² | - |
| 1778057333 | 16.67° C | 58% | 1011.8 hPa | 0 mm | - | 0 W/m² | - |
| 1778057030 | 16.67° C | 58% | 1011.8 hPa | 0 mm | - | 0 W/m² | - |
| 1778056727 | 16.67° C | 57% | 1011.7 hPa | 0 mm | - | 0 W/m² | - |
| 1778056424 | 17.22° C | 57% | 1011.7 hPa | 0 mm | - | 0 W/m² | - |
| 1778056122 | 17.22° C | 57% | 1011.8 hPa | 0 mm | - | 0 W/m² | - |
| 1778055818 | 17.22° C | 56% | 1011.5 hPa | 0 mm | - | 0 W/m² | - |
| 1778055514 | 17.22° C | 57% | 1011.5 hPa | 0 mm | - | 0 W/m² | - |
| 1778055212 | 16.67° C | 56% | 1011.5 hPa | 0 mm | - | 0 W/m² | - |
| 1778054910 | 16.67° C | 57% | 1011.4 hPa | 0 mm | - | 0 W/m² | - |
| 1778054606 | 16.67° C | 58% | 1011.7 hPa | 0 mm | - | 0 W/m² | - |
| 1778054304 | 16.67° C | 57% | 1011.5 hPa | 0 mm | - | 0 W/m² | - |
| 1778054001 | 16.11° C | 60% | 1011.2 hPa | 0 mm | - | 0 W/m² | - |
| 1778053698 | 15° C | 61% | 1011.2 hPa | 0 mm | - | 0 W/m² | - |
| 1778053395 | 15° C | 67% | 1011.1 hPa | 0 mm | - | 0 W/m² | - |
| 1778053093 | 15.56° C | 61% | 1010.8 hPa | 0 mm | - | 0 W/m² | - |
| 1778052790 | 15° C | 64% | 1010.9 hPa | 0 mm | - | 0 W/m² | - |
| 1778052487 | 15.56° C | 62% | 1010.8 hPa | 0 mm | - | 0 W/m² | - |
| 1778052185 | 16.11° C | 61% | 1010.9 hPa | 0 mm | - | 0 W/m² | - |
| 1778051882 | 16.67° C | 60% | 1010.9 hPa | 0 mm | - | 0 W/m² | - |
| 1778051580 | 16.11° C | 62% | 1010.9 hPa | 0 mm | - | 0 W/m² | - |
| 1778051277 | 15° C | 66% | 1010.9 hPa | 0 mm | - | 0 W/m² | - |
| 1778050974 | 16.11° C | 62% | 1010.8 hPa | 0 mm | - | 0 W/m² | - |
| 1778050671 | 15.56° C | 62% | 1010.9 hPa | 0 mm | - | 0 W/m² | - |
* Rain latest hour (hover to see other rain measurements)
** Current wind speed in m/s (hover to see current wind gust speed)